• Join FlightAware (Why Join?)
  • Login
  • US Flag 
07:09AM EDT


 

Airport Tracker/Info


-or-


 

Live Flight TrackerFlight Track Log ✈ JAL332 ✈ 18-Apr-2013 ✈ RJFF / FUK - RJTT / HND

Flight Track Log - Related Links

Times and Time Zones

All times are in EDT time to prevent confusion due to time zone crossing. See the JAL332 flight status page for this flight to view local times or setup timezone preferences in your user account.

Time Position Orientation Groundspeed Altitude Reporting Facility
EDT Latitude Longitude Course Direction KTS MPH feet Rate Location/Type
07:13AM 33.6943 130.8771 73° East  Level Estimated
07:14AM 33.7299 131.0197 73° East  Level Estimated
07:15AM 33.7653 131.1623 73° East  Level Estimated
07:16AM 33.8005 131.3051 73° East  Level Estimated
07:17AM 33.8356 131.4480 74° East  Level Estimated
07:18AM 33.8705 131.5910 74° East  Level Estimated
07:19AM 33.9052 131.7342 74° East  Level Estimated
07:20AM 33.9398 131.8774 74° East  Level Estimated
07:21AM 33.9742 132.0208 74° East  Level Estimated
07:22AM 34.0085 132.1643 74° East  Level Estimated
07:23AM 34.0425 132.3079 74° East  Level Estimated
07:24AM 34.0765 132.4516 74° East  Level Estimated
07:25AM 34.1102 132.5954 74° East  Level Estimated
07:26AM 34.1438 132.7393 74° East  Level Estimated
07:27AM 34.1772 132.8834 74° East  Level Estimated
07:28AM 34.2104 133.0276 74° East  Level Estimated
07:29AM 34.2435 133.1718 74° East  Level Estimated
07:30AM 34.2764 133.3163 75° East  Level Estimated
07:31AM 34.3091 133.4608 75° East  Level Estimated
07:32AM 34.3417 133.6054 75° East  Level Estimated
07:33AM 34.3741 133.7501 75° East  Level Estimated
07:34AM 34.4063 133.8949 75° East  Level Estimated
07:35AM 34.4384 134.0399 75° East  Level Estimated
07:36AM 34.4702 134.1850 75° East  Level Estimated
07:37AM 34.5019 134.3302 75° East  Level Estimated
07:38AM 34.5335 134.4754 75° East  Level Estimated
07:39AM 34.5614 134.6047 75° East  Level Estimated
07:40AM 34.5891 134.7340 75° East  Level Estimated
07:41AM 34.6167 134.8634 75° East  Level Estimated
07:42AM 34.6442 134.9929 76° East  Level Estimated
07:43AM 34.6716 135.1225 76° East  Level Estimated
07:44AM 34.6987 135.2522 76° East  Level Estimated
07:45AM 34.7258 135.3819 76° East  Level Estimated
07:46AM 34.7528 135.5118 76° East  Level Estimated
07:47AM 34.7788 135.6382 76° East  Level Estimated
07:48AM 34.8048 135.7647 76° East  Level Estimated
07:49AM 34.8306 135.8912 76° East  Level Estimated
07:50AM 34.8562 136.0179 76° East  Level Estimated
07:51AM 34.8818 136.1446 76° East  Level Estimated
07:52AM 34.9072 136.2714 76° East  Level Estimated
07:53AM 34.9364 136.4181 76° East  Level Estimated
07:54AM 34.9655 136.5649 76° East  Level Estimated
07:55AM 34.9943 136.7119 76° East  Level Estimated
07:56AM 35.0230 136.8589 77° East  Level Estimated
07:57AM 35.0515 137.0060 77° East  Level Estimated
07:58AM 35.0798 137.1532 77° East  Level Estimated
07:59AM 35.1080 137.3006 77° East  Level Estimated
08:00AM 35.1360 137.4480 77° East  Level Estimated
08:01AM 35.1638 137.5956 77° East  Level Estimated
08:02AM 35.1914 137.7432 77° East  Level Estimated
08:03AM 35.2188 137.8909 77° East  Level Estimated
08:04AM 35.2461 138.0388 77° East  Level Estimated
08:05AM 35.2709 138.1740 77° East  Level Estimated
08:06AM 35.2955 138.3094 77° East  Level Estimated
08:07AM 35.3199 138.4448 77° East  Level Estimated
08:08AM 35.3442 138.5803 78° East  Level Estimated
08:09AM 35.3684 138.7159 78° East  Level Estimated
08:10AM 35.3924 138.8515 78° East  Level Estimated
08:11AM 35.4163 138.9872 78° East  Level Estimated
08:12AM 35.4400 139.1231 78° East  Level Estimated
08:13AM 35.4635 139.2590 78° East  Level Estimated
08:14AM 35.4869 139.3949 78° East  Level Estimated
08:15AM 35.5102 139.5310 78° East  Level Estimated
08:16AM 35.5333 139.6671 78° East  Level Estimated
08:17AM 35.5523 139.7797 78° East  Level Estimated
08:18AM 35.5523 139.7797 122° Southeast  Level Estimated
08:19AM 35.5523 139.7797 122° Southeast  Level Estimated
08:20AM 35.5523 139.7797 122° Southeast  Level Estimated
08:21AM 35.5523 139.7797 122° Southeast  Level Estimated
08:22AM 35.5523 139.7797 122° Southeast  Level Estimated
08:23AM 35.5523 139.7797 122° Southeast  Level Estimated
08:24AM 35.5523 139.7797 122° Southeast  Level Estimated
08:25AM 35.5523 139.7797 122° Southeast  Level Estimated
08:26AM 35.5523 139.7797 122° Southeast  Level Estimated
08:27AM 35.5523 139.7797 122° Southeast  Level Estimated
08:28AM 35.5523 139.7797 122° Southeast  Level Estimated
08:29AM 35.5523 139.7797 122° Southeast  Level Estimated
08:30AM 35.5523 139.7797 122° Southeast  Level Estimated
08:31AM 35.5523 139.7797 122° Southeast  Level Estimated
08:32AM 35.5523 139.7797 122° Southeast  Level Estimated
08:33AM 35.5523 139.7797 122° Southeast  Level Estimated
08:34AM 35.5523 139.7797 122° Southeast  Level Estimated
08:35AM 35.5523 139.7797 122° Southeast  Level Estimated
08:36AM 35.5523 139.7797 122° Southeast  Level Estimated